Aérodrome :
LOGIN :

S'inscrire | Disclaimer

   EN    FR    IT 

 










Légende :    VFR   VFR Marginal   IFR   IFR Intensif   IFR Très Intensif
Visi : 
Plafond : 
>= 8 km
>= 3000ft
5 à 8 km
1000 à 3000 ft
1500m à 5 km
500 à 1000 ft
800 à 1500m
200 à 500 ft
< 800m
< 200 ft
Symboles :   Orages  Brouillard  Fortes neiges  Fortes précipitations  Vent > 20 kt
SIGMETs :   Divers  Orages  Givrage  Turbulence  Onde Orograph.  Cendres Volcan.






- Altitude de l'aérodrome : 131 ft
- Code IATA : TLL


EETN - Talinn

DERNIER METAR :
  • 180250Z 23021G33KT 9000 -SHRA FEW017CB OVC029 05/03 Q0991 R08/290295

METARs EXPIRÉS :
  • 180220Z 23021G35KT 9000 -SHRA SCT017CB OVC026 05/03 Q0991 R08/290195
  • 180150Z 23022G36KT 9999 -SHRA FEW015CB OVC027 05/02 Q0991 R08/290195
  • 180120Z 23022G33KT 9000 -SHRA FEW015CB OVC025 06/02 Q0991 R08/290195
  • 180050Z 23020G30KT 9999 BKN025 OVC045 06/02 Q0991 R08/290195
  • 180020Z 23019G30KT 9999 FEW019 OVC042 06/02 Q0991 R08/290195

TAF TAF EETN
Valide du 18 à 00h jusqu'au 19 à 00h UTC


180000Z 1800/1824 23020G30KT 9999 BKN025
TEMPO 1800/1806 23035G42KT 5000 SHRA BKN010 SCT015CB
BECMG 1812/1814 23016G26KT
TEMPO 1821/1824 SCT015CB



MET'MAP, la Météo Aéronautique d'un coup d'oeil ! - Copyright ORBIFLY Décembre 2007 - Disclaimer

ORBIFLY MET'MAP TEAM :

Programmation & Développement : Alexandra Zaïnal
Sur une idée originale de : Baudouin d'Aumeries
Assistance à la programmation : Marc-Olivier Méhu
Soutien technique & logistique : Manuel Goepfert

Contact : metmap@orbifly.com




SOURCES & CREDITS :

   NOAA